sensor_id;sensor_type;location;lat;lon;timestamp;P1;durP1;ratioP1;P2;durP2;ratioP2
32812;SDS011;19162;48.254;11.454;2023-06-22T00:00:26;12.67;;;6.87;;
32812;SDS011;19162;48.254;11.454;2023-06-22T00:03:26;6.72;;;5.75;;
32812;SDS011;19162;48.254;11.454;2023-06-22T00:06:26;7.13;;;5.82;;
32812;SDS011;19162;48.254;11.454;2023-06-22T00:09:26;6.30;;;5.65;;
32812;SDS011;19162;48.254;11.454;2023-06-22T00:12:26;8.03;;;6.20;;
32812;SDS011;19162;48.254;11.454;2023-06-22T00:15:27;8.33;;;6.03;;
32812;SDS011;19162;48.254;11.454;2023-06-22T00:18:27;6.57;;;5.97;;
32812;SDS011;19162;48.254;11.454;2023-06-22T00:24:30;6.65;;;6.05;;
32812;SDS011;19162;48.254;11.454;2023-06-22T00:27:31;8.05;;;6.25;;
32812;SDS011;19162;48.254;11.454;2023-06-22T00:30:31;7.22;;;6.47;;
32812;SDS011;19162;48.254;11.454;2023-06-22T00:33:31;7.07;;;6.22;;
32812;SDS011;19162;48.254;11.454;2023-06-22T00:36:32;8.10;;;5.97;;
32812;SDS011;19162;48.254;11.454;2023-06-22T00:39:32;7.15;;;6.45;;
32812;SDS011;19162;48.254;11.454;2023-06-22T00:42:33;7.72;;;6.30;;
32812;SDS011;19162;48.254;11.454;2023-06-22T00:45:33;7.85;;;6.05;;
32812;SDS011;19162;48.254;11.454;2023-06-22T00:48:34;6.60;;;6.00;;
32812;SDS011;19162;48.254;11.454;2023-06-22T00:51:37;9.25;;;6.15;;
32812;SDS011;19162;48.254;11.454;2023-06-22T00:54:38;8.18;;;6.60;;
32812;SDS011;19162;48.254;11.454;2023-06-22T00:57:38;6.43;;;5.60;;
32812;SDS011;19162;48.254;11.454;2023-06-22T01:00:39;7.37;;;5.20;;
32812;SDS011;19162;48.254;11.454;2023-06-22T01:03:39;7.10;;;5.78;;
32812;SDS011;19162;48.254;11.454;2023-06-22T01:06:41;6.83;;;6.10;;
32812;SDS011;19162;48.254;11.454;2023-06-22T01:09:55;8.20;;;6.55;;
32812;SDS011;19162;48.254;11.454;2023-06-22T01:12:59;6.70;;;6.10;;
32812;SDS011;19162;48.254;11.454;2023-06-22T01:16:12;9.10;;;5.80;;
32812;SDS011;19162;48.254;11.454;2023-06-22T01:19:20;7.22;;;6.35;;
32812;SDS011;19162;48.254;11.454;2023-06-22T01:25:31;6.88;;;6.22;;
32812;SDS011;19162;48.254;11.454;2023-06-22T01:28:49;6.72;;;5.57;;
32812;SDS011;19162;48.254;11.454;2023-06-22T01:31:50;7.38;;;6.35;;
32812;SDS011;19162;48.254;11.454;2023-06-22T01:34:51;6.93;;;5.95;;
32812;SDS011;19162;48.254;11.454;2023-06-22T01:37:51;8.80;;;6.40;;
32812;SDS011;19162;48.254;11.454;2023-06-22T01:40:52;10.02;;;6.60;;
32812;SDS011;19162;48.254;11.454;2023-06-22T01:43:53;6.38;;;5.78;;
32812;SDS011;19162;48.254;11.454;2023-06-22T01:46:53;7.78;;;6.97;;
32812;SDS011;19162;48.254;11.454;2023-06-22T01:49:54;8.15;;;6.57;;
32812;SDS011;19162;48.254;11.454;2023-06-22T01:52:54;7.18;;;6.35;;
32812;SDS011;19162;48.254;11.454;2023-06-22T01:55:55;7.77;;;6.97;;
32812;SDS011;19162;48.254;11.454;2023-06-22T02:02:02;7.78;;;7.03;;
32812;SDS011;19162;48.254;11.454;2023-06-22T02:05:07;5.63;;;5.15;;
32812;SDS011;19162;48.254;11.454;2023-06-22T02:08:11;7.57;;;6.82;;
32812;SDS011;19162;48.254;11.454;2023-06-22T02:11:16;9.10;;;7.18;;
32812;SDS011;19162;48.254;11.454;2023-06-22T02:14:18;7.33;;;6.63;;
32812;SDS011;19162;48.254;11.454;2023-06-22T02:17:18;9.63;;;6.33;;
32812;SDS011;19162;48.254;11.454;2023-06-22T02:20:19;10.93;;;6.67;;
32812;SDS011;19162;48.254;11.454;2023-06-22T02:23:20;9.55;;;6.85;;
32812;SDS011;19162;48.254;11.454;2023-06-22T02:26:20;7.35;;;6.57;;
32812;SDS011;19162;48.254;11.454;2023-06-22T02:29:20;7.43;;;6.53;;
32812;SDS011;19162;48.254;11.454;2023-06-22T02:32:20;8.82;;;7.15;;
32812;SDS011;19162;48.254;11.454;2023-06-22T02:35:20;7.35;;;6.75;;
32812;SDS011;19162;48.254;11.454;2023-06-22T02:38:21;7.72;;;6.97;;
32812;SDS011;19162;48.254;11.454;2023-06-22T02:44:24;10.18;;;6.90;;
32812;SDS011;19162;48.254;11.454;2023-06-22T02:47:25;7.68;;;7.07;;
32812;SDS011;19162;48.254;11.454;2023-06-22T02:50:25;8.57;;;6.95;;
32812;SDS011;19162;48.254;11.454;2023-06-22T02:53:25;7.35;;;6.22;;
32812;SDS011;19162;48.254;11.454;2023-06-22T02:56:25;6.78;;;6.05;;
32812;SDS011;19162;48.254;11.454;2023-06-22T02:59:26;7.85;;;6.32;;
32812;SDS011;19162;48.254;11.454;2023-06-22T03:02:26;8.60;;;6.93;;
32812;SDS011;19162;48.254;11.454;2023-06-22T03:05:26;8.90;;;7.60;;
32812;SDS011;19162;48.254;11.454;2023-06-22T03:08:27;7.75;;;7.00;;
32812;SDS011;19162;48.254;11.454;2023-06-22T03:11:27;7.55;;;6.80;;
32812;SDS011;19162;48.254;11.454;2023-06-22T03:14:27;9.35;;;7.53;;
32812;SDS011;19162;48.254;11.454;2023-06-22T03:17:27;7.25;;;6.55;;
32812;SDS011;19162;48.254;11.454;2023-06-22T03:20:28;8.55;;;7.30;;
32812;SDS011;19162;48.254;11.454;2023-06-22T03:23:33;8.35;;;7.55;;
32812;SDS011;19162;48.254;11.454;2023-06-22T03:26:34;7.85;;;6.95;;
32812;SDS011;19162;48.254;11.454;2023-06-22T03:29:34;9.95;;;6.72;;
32812;SDS011;19162;48.254;11.454;2023-06-22T03:32:34;7.50;;;6.77;;
32812;SDS011;19162;48.254;11.454;2023-06-22T03:35:34;10.57;;;7.47;;
32812;SDS011;19162;48.254;11.454;2023-06-22T03:38:35;9.32;;;7.28;;
32812;SDS011;19162;48.254;11.454;2023-06-22T03:41:35;11.90;;;8.47;;
32812;SDS011;19162;48.254;11.454;2023-06-22T03:44:35;8.48;;;7.60;;
32812;SDS011;19162;48.254;11.454;2023-06-22T03:47:36;9.35;;;8.07;;
32812;SDS011;19162;48.254;11.454;2023-06-22T03:50:36;8.55;;;7.75;;
32812;SDS011;19162;48.254;11.454;2023-06-22T03:53:36;8.47;;;7.60;;
32812;SDS011;19162;48.254;11.454;2023-06-22T03:56:36;9.00;;;7.82;;
32812;SDS011;19162;48.254;11.454;2023-06-22T03:59:38;8.38;;;7.57;;
32812;SDS011;19162;48.254;11.454;2023-06-22T04:02:38;8.50;;;7.70;;
32812;SDS011;19162;48.254;11.454;2023-06-22T04:05:39;8.40;;;7.60;;
32812;SDS011;19162;48.254;11.454;2023-06-22T04:08:39;8.07;;;7.30;;
32812;SDS011;19162;48.254;11.454;2023-06-22T04:11:39;12.50;;;7.57;;
32812;SDS011;19162;48.254;11.454;2023-06-22T04:14:39;12.75;;;7.43;;
32812;SDS011;19162;48.254;11.454;2023-06-22T04:17:39;8.63;;;7.63;;
32812;SDS011;19162;48.254;11.454;2023-06-22T04:20:39;8.57;;;7.70;;
32812;SDS011;19162;48.254;11.454;2023-06-22T04:23:40;9.33;;;7.83;;
32812;SDS011;19162;48.254;11.454;2023-06-22T04:26:40;8.33;;;7.53;;
32812;SDS011;19162;48.254;11.454;2023-06-22T04:29:42;9.77;;;7.72;;
32812;SDS011;19162;48.254;11.454;2023-06-22T04:32:48;10.70;;;9.70;;
32812;SDS011;19162;48.254;11.454;2023-06-22T04:35:58;9.07;;;8.18;;
32812;SDS011;19162;48.254;11.454;2023-06-22T04:38:58;9.13;;;8.27;;
32812;SDS011;19162;48.254;11.454;2023-06-22T04:41:58;10.60;;;9.30;;
32812;SDS011;19162;48.254;11.454;2023-06-22T04:45:00;11.17;;;9.27;;
32812;SDS011;19162;48.254;11.454;2023-06-22T04:48:00;8.90;;;7.72;;
32812;SDS011;19162;48.254;11.454;2023-06-22T04:51:01;8.27;;;7.35;;
32812;SDS011;19162;48.254;11.454;2023-06-22T04:54:03;8.30;;;7.50;;
32812;SDS011;19162;48.254;11.454;2023-06-22T04:57:06;8.10;;;7.37;;
32812;SDS011;19162;48.254;11.454;2023-06-22T05:00:10;7.80;;;7.07;;
32812;SDS011;19162;48.254;11.454;2023-06-22T05:03:16;7.55;;;6.85;;
32812;SDS011;19162;48.254;11.454;2023-06-22T05:06:18;8.63;;;7.53;;
32812;SDS011;19162;48.254;11.454;2023-06-22T05:09:19;9.18;;;7.97;;
32812;SDS011;19162;48.254;11.454;2023-06-22T05:12:19;8.52;;;7.38;;
32812;SDS011;19162;48.254;11.454;2023-06-22T05:15:19;8.00;;;7.25;;
32812;SDS011;19162;48.254;11.454;2023-06-22T05:18:19;10.07;;;7.85;;
32812;SDS011;19162;48.254;11.454;2023-06-22T05:21:23;10.30;;;7.03;;
32812;SDS011;19162;48.254;11.454;2023-06-22T05:24:24;9.63;;;7.97;;
32812;SDS011;19162;48.254;11.454;2023-06-22T05:27:24;8.60;;;7.80;;
32812;SDS011;19162;48.254;11.454;2023-06-22T05:30:24;8.67;;;7.53;;
32812;SDS011;19162;48.254;11.454;2023-06-22T05:33:24;9.23;;;6.93;;
32812;SDS011;19162;48.254;11.454;2023-06-22T05:36:25;8.63;;;7.83;;
32812;SDS011;19162;48.254;11.454;2023-06-22T05:39:25;10.20;;;7.80;;
32812;SDS011;19162;48.254;11.454;2023-06-22T05:42:25;9.15;;;7.25;;
32812;SDS011;19162;48.254;11.454;2023-06-22T05:45:26;8.77;;;7.88;;
32812;SDS011;19162;48.254;11.454;2023-06-22T05:48:26;8.30;;;7.50;;
32812;SDS011;19162;48.254;11.454;2023-06-22T05:51:26;10.67;;;7.33;;
32812;SDS011;19162;48.254;11.454;2023-06-22T05:54:29;8.10;;;7.03;;
32812;SDS011;19162;48.254;11.454;2023-06-22T05:57:29;11.65;;;7.60;;
32812;SDS011;19162;48.254;11.454;2023-06-22T06:00:30;11.80;;;7.77;;
32812;SDS011;19162;48.254;11.454;2023-06-22T06:03:30;9.40;;;7.73;;
32812;SDS011;19162;48.254;11.454;2023-06-22T06:06:30;11.13;;;7.32;;
32812;SDS011;19162;48.254;11.454;2023-06-22T06:09:30;8.33;;;6.97;;
32812;SDS011;19162;48.254;11.454;2023-06-22T06:12:31;7.63;;;6.63;;
32812;SDS011;19162;48.254;11.454;2023-06-22T06:15:31;10.07;;;7.47;;
32812;SDS011;19162;48.254;11.454;2023-06-22T06:18:32;12.00;;;7.80;;
32812;SDS011;19162;48.254;11.454;2023-06-22T06:21:32;7.22;;;6.53;;
32812;SDS011;19162;48.254;11.454;2023-06-22T06:24:32;7.57;;;6.63;;
32812;SDS011;19162;48.254;11.454;2023-06-22T06:27:32;8.73;;;7.20;;
32812;SDS011;19162;48.254;11.454;2023-06-22T06:30:33;8.50;;;6.67;;
32812;SDS011;19162;48.254;11.454;2023-06-22T06:33:33;8.63;;;6.85;;
32812;SDS011;19162;48.254;11.454;2023-06-22T06:36:33;9.53;;;6.20;;
32812;SDS011;19162;48.254;11.454;2023-06-22T06:39:34;13.07;;;6.65;;
32812;SDS011;19162;48.254;11.454;2023-06-22T06:42:34;8.55;;;6.75;;
32812;SDS011;19162;48.254;11.454;2023-06-22T06:45:34;8.77;;;7.35;;
32812;SDS011;19162;48.254;11.454;2023-06-22T06:48:34;8.27;;;7.37;;
32812;SDS011;19162;48.254;11.454;2023-06-22T06:51:35;11.63;;;7.20;;
32812;SDS011;19162;48.254;11.454;2023-06-22T06:54:35;9.07;;;7.00;;
32812;SDS011;19162;48.254;11.454;2023-06-22T06:57:35;9.35;;;7.43;;
32812;SDS011;19162;48.254;11.454;2023-06-22T07:00:37;10.75;;;7.85;;
32812;SDS011;19162;48.254;11.454;2023-06-22T07:03:37;8.87;;;6.77;;
32812;SDS011;19162;48.254;11.454;2023-06-22T07:06:37;7.80;;;6.75;;
32812;SDS011;19162;48.254;11.454;2023-06-22T07:09:39;11.80;;;8.00;;
32812;SDS011;19162;48.254;11.454;2023-06-22T07:12:39;8.50;;;7.32;;
32812;SDS011;19162;48.254;11.454;2023-06-22T07:15:39;9.57;;;7.65;;
32812;SDS011;19162;48.254;11.454;2023-06-22T07:18:40;10.15;;;7.38;;
32812;SDS011;19162;48.254;11.454;2023-06-22T07:21:40;7.80;;;6.80;;
32812;SDS011;19162;48.254;11.454;2023-06-22T07:24:40;7.65;;;6.95;;
32812;SDS011;19162;48.254;11.454;2023-06-22T07:27:56;9.23;;;7.40;;
32812;SDS011;19162;48.254;11.454;2023-06-22T07:30:57;10.65;;;7.32;;
32812;SDS011;19162;48.254;11.454;2023-06-22T07:33:57;9.45;;;6.97;;
32812;SDS011;19162;48.254;11.454;2023-06-22T07:36:57;9.37;;;7.37;;
32812;SDS011;19162;48.254;11.454;2023-06-22T07:39:57;10.15;;;7.45;;
32812;SDS011;19162;48.254;11.454;2023-06-22T07:42:58;11.30;;;7.55;;
32812;SDS011;19162;48.254;11.454;2023-06-22T07:45:58;9.03;;;7.17;;
32812;SDS011;19162;48.254;11.454;2023-06-22T07:48:58;12.33;;;7.93;;
32812;SDS011;19162;48.254;11.454;2023-06-22T07:51:59;21.27;;;8.15;;
32812;SDS011;19162;48.254;11.454;2023-06-22T07:55:00;10.45;;;7.30;;
32812;SDS011;19162;48.254;11.454;2023-06-22T07:58:04;8.43;;;7.00;;
32812;SDS011;19162;48.254;11.454;2023-06-22T08:01:24;9.52;;;6.93;;
32812;SDS011;19162;48.254;11.454;2023-06-22T08:04:30;7.88;;;6.72;;
32812;SDS011;19162;48.254;11.454;2023-06-22T08:07:50;10.60;;;6.35;;
32812;SDS011;19162;48.254;11.454;2023-06-22T08:10:50;7.93;;;7.13;;
32812;SDS011;19162;48.254;11.454;2023-06-22T08:13:51;10.82;;;5.97;;
32812;SDS011;19162;48.254;11.454;2023-06-22T08:16:51;11.00;;;6.95;;
32812;SDS011;19162;48.254;11.454;2023-06-22T08:19:51;10.17;;;7.23;;
32812;SDS011;19162;48.254;11.454;2023-06-22T08:22:53;12.20;;;8.10;;
32812;SDS011;19162;48.254;11.454;2023-06-22T08:25:53;8.38;;;7.43;;
32812;SDS011;19162;48.254;11.454;2023-06-22T08:28:53;11.90;;;6.90;;
32812;SDS011;19162;48.254;11.454;2023-06-22T08:31:54;12.70;;;7.80;;
32812;SDS011;19162;48.254;11.454;2023-06-22T08:34:55;11.85;;;6.88;;
32812;SDS011;19162;48.254;11.454;2023-06-22T08:37:55;10.43;;;7.07;;
32812;SDS011;19162;48.254;11.454;2023-06-22T08:40:56;10.52;;;7.13;;
32812;SDS011;19162;48.254;11.454;2023-06-22T08:43:57;10.17;;;7.73;;
32812;SDS011;19162;48.254;11.454;2023-06-22T08:46:57;12.90;;;6.93;;
32812;SDS011;19162;48.254;11.454;2023-06-22T08:49:57;10.83;;;7.27;;
32812;SDS011;19162;48.254;11.454;2023-06-22T08:52:58;9.53;;;6.87;;
32812;SDS011;19162;48.254;11.454;2023-06-22T08:55:58;10.75;;;7.13;;
32812;SDS011;19162;48.254;11.454;2023-06-22T08:58:58;10.67;;;7.33;;
32812;SDS011;19162;48.254;11.454;2023-06-22T09:01:58;11.02;;;7.07;;
32812;SDS011;19162;48.254;11.454;2023-06-22T09:04:59;9.27;;;7.50;;
32812;SDS011;19162;48.254;11.454;2023-06-22T09:07:59;11.48;;;6.45;;
32812;SDS011;19162;48.254;11.454;2023-06-22T09:10:59;10.27;;;7.23;;
32812;SDS011;19162;48.254;11.454;2023-06-22T09:13:59;14.30;;;7.95;;
32812;SDS011;19162;48.254;11.454;2023-06-22T09:17:00;11.48;;;7.57;;
32812;SDS011;19162;48.254;11.454;2023-06-22T09:20:00;10.87;;;7.70;;
32812;SDS011;19162;48.254;11.454;2023-06-22T09:23:00;11.77;;;7.93;;
32812;SDS011;19162;48.254;11.454;2023-06-22T09:26:00;10.95;;;6.90;;
32812;SDS011;19162;48.254;11.454;2023-06-22T09:29:01;10.73;;;7.13;;
32812;SDS011;19162;48.254;11.454;2023-06-22T09:32:01;9.33;;;6.13;;
32812;SDS011;19162;48.254;11.454;2023-06-22T09:35:05;13.15;;;7.82;;
32812;SDS011;19162;48.254;11.454;2023-06-22T09:38:09;11.85;;;7.50;;
32812;SDS011;19162;48.254;11.454;2023-06-22T09:41:09;12.73;;;8.03;;
32812;SDS011;19162;48.254;11.454;2023-06-22T09:44:09;14.63;;;7.60;;
32812;SDS011;19162;48.254;11.454;2023-06-22T09:47:10;9.65;;;7.07;;
32812;SDS011;19162;48.254;11.454;2023-06-22T09:50:10;11.27;;;7.10;;
32812;SDS011;19162;48.254;11.454;2023-06-22T09:53:10;10.03;;;7.00;;
32812;SDS011;19162;48.254;11.454;2023-06-22T09:56:10;12.18;;;6.65;;
32812;SDS011;19162;48.254;11.454;2023-06-22T09:59:14;11.88;;;7.70;;
32812;SDS011;19162;48.254;11.454;2023-06-22T10:02:15;13.27;;;7.20;;
32812;SDS011;19162;48.254;11.454;2023-06-22T10:05:15;11.40;;;7.70;;
32812;SDS011;19162;48.254;11.454;2023-06-22T10:08:15;12.67;;;6.37;;
32812;SDS011;19162;48.254;11.454;2023-06-22T10:11:16;10.20;;;7.03;;
32812;SDS011;19162;48.254;11.454;2023-06-22T10:14:28;10.60;;;6.35;;
32812;SDS011;19162;48.254;11.454;2023-06-22T10:17:29;13.77;;;7.10;;
32812;SDS011;19162;48.254;11.454;2023-06-22T10:20:29;12.75;;;7.53;;
32812;SDS011;19162;48.254;11.454;2023-06-22T10:23:30;9.00;;;5.63;;
32812;SDS011;19162;48.254;11.454;2023-06-22T10:26:30;14.77;;;7.23;;
32812;SDS011;19162;48.254;11.454;2023-06-22T10:29:36;13.25;;;7.28;;
32812;SDS011;19162;48.254;11.454;2023-06-22T10:32:39;11.48;;;7.07;;
32812;SDS011;19162;48.254;11.454;2023-06-22T10:35:40;11.00;;;6.95;;
32812;SDS011;19162;48.254;11.454;2023-06-22T10:38:40;14.20;;;6.68;;
32812;SDS011;19162;48.254;11.454;2023-06-22T10:41:40;13.07;;;6.85;;
32812;SDS011;19162;48.254;11.454;2023-06-22T10:44:41;15.40;;;7.87;;
32812;SDS011;19162;48.254;11.454;2023-06-22T10:47:43;14.10;;;7.40;;
32812;SDS011;19162;48.254;11.454;2023-06-22T10:50:43;12.37;;;7.13;;
32812;SDS011;19162;48.254;11.454;2023-06-22T10:53:43;13.70;;;7.10;;
32812;SDS011;19162;48.254;11.454;2023-06-22T10:56:43;12.48;;;7.47;;
32812;SDS011;19162;48.254;11.454;2023-06-22T10:59:44;9.73;;;6.25;;
32812;SDS011;19162;48.254;11.454;2023-06-22T11:02:44;11.43;;;6.80;;
32812;SDS011;19162;48.254;11.454;2023-06-22T11:05:44;17.63;;;7.67;;
32812;SDS011;19162;48.254;11.454;2023-06-22T11:08:44;10.97;;;7.37;;
32812;SDS011;19162;48.254;11.454;2023-06-22T11:11:45;15.00;;;7.32;;
32812;SDS011;19162;48.254;11.454;2023-06-22T11:14:45;11.40;;;6.97;;
32812;SDS011;19162;48.254;11.454;2023-06-22T11:17:46;17.17;;;6.37;;
32812;SDS011;19162;48.254;11.454;2023-06-22T11:20:46;13.20;;;7.13;;
32812;SDS011;19162;48.254;11.454;2023-06-22T11:23:47;9.52;;;6.78;;
32812;SDS011;19162;48.254;11.454;2023-06-22T11:26:48;11.60;;;7.35;;
32812;SDS011;19162;48.254;11.454;2023-06-22T11:29:48;9.47;;;6.97;;
32812;SDS011;19162;48.254;11.454;2023-06-22T11:32:49;12.30;;;7.57;;
32812;SDS011;19162;48.254;11.454;2023-06-22T11:35:50;12.73;;;7.27;;
32812;SDS011;19162;48.254;11.454;2023-06-22T11:38:50;12.37;;;6.73;;
32812;SDS011;19162;48.254;11.454;2023-06-22T11:41:51;11.25;;;7.10;;
32812;SDS011;19162;48.254;11.454;2023-06-22T11:44:51;14.43;;;7.07;;
32812;SDS011;19162;48.254;11.454;2023-06-22T11:47:52;12.20;;;7.32;;
32812;SDS011;19162;48.254;11.454;2023-06-22T11:50:52;16.60;;;7.47;;
32812;SDS011;19162;48.254;11.454;2023-06-22T11:53:53;16.37;;;7.60;;
32812;SDS011;19162;48.254;11.454;2023-06-22T11:56:56;11.85;;;6.97;;
32812;SDS011;19162;48.254;11.454;2023-06-22T12:00:06;14.32;;;7.05;;
32812;SDS011;19162;48.254;11.454;2023-06-22T12:03:20;11.90;;;6.97;;
32812;SDS011;19162;48.254;11.454;2023-06-22T12:06:26;13.18;;;6.60;;
32812;SDS011;19162;48.254;11.454;2023-06-22T12:09:30;14.38;;;7.32;;
32812;SDS011;19162;48.254;11.454;2023-06-22T12:12:30;12.27;;;6.60;;
32812;SDS011;19162;48.254;11.454;2023-06-22T12:15:30;11.55;;;7.18;;
32812;SDS011;19162;48.254;11.454;2023-06-22T12:18:30;16.52;;;7.95;;
32812;SDS011;19162;48.254;11.454;2023-06-22T12:21:30;15.17;;;7.70;;
32812;SDS011;19162;48.254;11.454;2023-06-22T12:24:31;10.13;;;6.85;;
32812;SDS011;19162;48.254;11.454;2023-06-22T12:27:31;16.70;;;7.20;;
32812;SDS011;19162;48.254;11.454;2023-06-22T12:30:32;14.67;;;7.30;;
32812;SDS011;19162;48.254;11.454;2023-06-22T12:33:32;15.15;;;7.28;;
32812;SDS011;19162;48.254;11.454;2023-06-22T12:36:33;12.23;;;7.23;;
32812;SDS011;19162;48.254;11.454;2023-06-22T12:39:33;17.08;;;7.57;;
32812;SDS011;19162;48.254;11.454;2023-06-22T12:42:33;12.68;;;7.50;;
32812;SDS011;19162;48.254;11.454;2023-06-22T12:45:33;16.17;;;7.43;;
32812;SDS011;19162;48.254;11.454;2023-06-22T12:48:34;11.00;;;6.50;;
32812;SDS011;19162;48.254;11.454;2023-06-22T12:51:41;15.23;;;7.50;;
32812;SDS011;19162;48.254;11.454;2023-06-22T12:54:42;11.88;;;7.15;;
32812;SDS011;19162;48.254;11.454;2023-06-22T12:57:42;10.13;;;6.00;;
32812;SDS011;19162;48.254;11.454;2023-06-22T13:00:42;14.02;;;7.25;;
32812;SDS011;19162;48.254;11.454;2023-06-22T13:03:42;12.75;;;6.82;;
32812;SDS011;19162;48.254;11.454;2023-06-22T13:06:43;18.30;;;6.40;;
32812;SDS011;19162;48.254;11.454;2023-06-22T13:09:46;14.00;;;6.25;;
32812;SDS011;19162;48.254;11.454;2023-06-22T13:12:46;14.10;;;6.63;;
32812;SDS011;19162;48.254;11.454;2023-06-22T13:15:46;14.27;;;6.63;;
32812;SDS011;19162;48.254;11.454;2023-06-22T13:18:47;11.82;;;6.18;;
32812;SDS011;19162;48.254;11.454;2023-06-22T13:21:47;11.20;;;6.25;;
32812;SDS011;19162;48.254;11.454;2023-06-22T13:24:47;15.23;;;6.67;;
32812;SDS011;19162;48.254;11.454;2023-06-22T13:27:47;15.47;;;6.20;;
32812;SDS011;19162;48.254;11.454;2023-06-22T13:30:47;15.87;;;6.20;;
32812;SDS011;19162;48.254;11.454;2023-06-22T13:33:48;16.53;;;6.43;;
32812;SDS011;19162;48.254;11.454;2023-06-22T13:36:48;11.23;;;5.85;;
32812;SDS011;19162;48.254;11.454;2023-06-22T13:39:49;11.87;;;5.73;;
32812;SDS011;19162;48.254;11.454;2023-06-22T13:42:49;17.13;;;6.17;;
32812;SDS011;19162;48.254;11.454;2023-06-22T13:45:49;14.30;;;6.82;;
32812;SDS011;19162;48.254;11.454;2023-06-22T13:48:49;10.27;;;6.60;;
32812;SDS011;19162;48.254;11.454;2023-06-22T13:51:50;11.03;;;5.93;;
32812;SDS011;19162;48.254;11.454;2023-06-22T13:54:50;8.63;;;5.43;;
32812;SDS011;19162;48.254;11.454;2023-06-22T13:57:50;12.95;;;5.55;;
32812;SDS011;19162;48.254;11.454;2023-06-22T14:00:51;11.82;;;6.82;;
32812;SDS011;19162;48.254;11.454;2023-06-22T14:03:51;15.13;;;6.47;;
32812;SDS011;19162;48.254;11.454;2023-06-22T14:06:51;11.23;;;5.72;;
32812;SDS011;19162;48.254;11.454;2023-06-22T14:09:52;14.70;;;5.87;;
32812;SDS011;19162;48.254;11.454;2023-06-22T14:12:52;16.52;;;6.75;;
32812;SDS011;19162;48.254;11.454;2023-06-22T14:15:53;12.10;;;6.03;;
32812;SDS011;19162;48.254;11.454;2023-06-22T14:18:54;10.07;;;5.80;;
32812;SDS011;19162;48.254;11.454;2023-06-22T14:21:54;12.27;;;6.03;;
32812;SDS011;19162;48.254;11.454;2023-06-22T14:24:55;11.52;;;6.78;;
32812;SDS011;19162;48.254;11.454;2023-06-22T14:27:57;17.50;;;7.18;;
32812;SDS011;19162;48.254;11.454;2023-06-22T14:30:57;11.73;;;5.97;;
32812;SDS011;19162;48.254;11.454;2023-06-22T14:33:58;16.87;;;6.47;;
32812;SDS011;19162;48.254;11.454;2023-06-22T14:36:58;12.40;;;6.37;;
32812;SDS011;19162;48.254;11.454;2023-06-22T14:39:58;14.03;;;6.73;;
32812;SDS011;19162;48.254;11.454;2023-06-22T14:42:59;11.07;;;6.55;;
32812;SDS011;19162;48.254;11.454;2023-06-22T14:45:59;14.53;;;6.03;;
32812;SDS011;19162;48.254;11.454;2023-06-22T14:49:00;19.25;;;6.43;;
32812;SDS011;19162;48.254;11.454;2023-06-22T14:52:00;14.48;;;6.78;;
32812;SDS011;19162;48.254;11.454;2023-06-22T14:55:00;8.15;;;5.80;;
32812;SDS011;19162;48.254;11.454;2023-06-22T14:58:01;12.23;;;6.15;;
32812;SDS011;19162;48.254;11.454;2023-06-22T15:01:01;11.87;;;5.60;;
32812;SDS011;19162;48.254;11.454;2023-06-22T15:04:02;19.40;;;6.05;;
32812;SDS011;19162;48.254;11.454;2023-06-22T15:07:02;10.25;;;6.13;;
32812;SDS011;19162;48.254;11.454;2023-06-22T15:10:02;13.60;;;6.73;;
32812;SDS011;19162;48.254;11.454;2023-06-22T15:13:03;8.02;;;5.90;;
32812;SDS011;19162;48.254;11.454;2023-06-22T15:16:03;15.50;;;6.75;;
32812;SDS011;19162;48.254;11.454;2023-06-22T15:19:03;15.40;;;6.47;;
32812;SDS011;19162;48.254;11.454;2023-06-22T15:22:04;11.18;;;6.15;;
32812;SDS011;19162;48.254;11.454;2023-06-22T15:25:05;12.80;;;6.47;;
32812;SDS011;19162;48.254;11.454;2023-06-22T15:28:05;13.43;;;6.15;;
32812;SDS011;19162;48.254;11.454;2023-06-22T15:31:05;12.27;;;6.32;;
32812;SDS011;19162;48.254;11.454;2023-06-22T15:34:06;11.13;;;6.38;;
32812;SDS011;19162;48.254;11.454;2023-06-22T15:37:06;17.10;;;6.40;;
32812;SDS011;19162;48.254;11.454;2023-06-22T15:40:06;14.90;;;6.77;;
32812;SDS011;19162;48.254;11.454;2023-06-22T15:43:09;15.07;;;6.47;;
32812;SDS011;19162;48.254;11.454;2023-06-22T15:46:10;15.20;;;6.47;;
32812;SDS011;19162;48.254;11.454;2023-06-22T15:49:10;14.33;;;7.07;;
32812;SDS011;19162;48.254;11.454;2023-06-22T15:52:10;10.63;;;5.97;;
32812;SDS011;19162;48.254;11.454;2023-06-22T15:55:10;11.50;;;5.73;;
32812;SDS011;19162;48.254;11.454;2023-06-22T15:58:11;15.45;;;6.97;;
32812;SDS011;19162;48.254;11.454;2023-06-22T16:01:12;14.30;;;6.32;;
32812;SDS011;19162;48.254;11.454;2023-06-22T16:04:13;11.40;;;6.07;;
32812;SDS011;19162;48.254;11.454;2023-06-22T16:07:13;11.23;;;6.27;;
32812;SDS011;19162;48.254;11.454;2023-06-22T16:10:13;14.63;;;6.20;;
32812;SDS011;19162;48.254;11.454;2023-06-22T16:13:15;7.63;;;5.75;;
32812;SDS011;19162;48.254;11.454;2023-06-22T16:16:16;13.07;;;6.22;;
32812;SDS011;19162;48.254;11.454;2023-06-22T16:19:16;14.80;;;6.30;;
32812;SDS011;19162;48.254;11.454;2023-06-22T16:22:16;16.30;;;5.97;;
32812;SDS011;19162;48.254;11.454;2023-06-22T16:25:17;15.65;;;6.78;;
32812;SDS011;19162;48.254;11.454;2023-06-22T16:28:17;12.60;;;6.17;;
32812;SDS011;19162;48.254;11.454;2023-06-22T16:31:18;10.13;;;5.20;;
32812;SDS011;19162;48.254;11.454;2023-06-22T16:34:18;12.90;;;6.90;;
32812;SDS011;19162;48.254;11.454;2023-06-22T16:37:19;9.57;;;5.82;;
32812;SDS011;19162;48.254;11.454;2023-06-22T16:40:19;19.42;;;7.18;;
32812;SDS011;19162;48.254;11.454;2023-06-22T16:43:20;12.07;;;6.15;;
32812;SDS011;19162;48.254;11.454;2023-06-22T16:46:21;13.98;;;6.18;;
32812;SDS011;19162;48.254;11.454;2023-06-22T16:49:22;8.15;;;5.80;;
32812;SDS011;19162;48.254;11.454;2023-06-22T16:52:22;13.37;;;5.83;;
32812;SDS011;19162;48.254;11.454;2023-06-22T16:55:23;11.53;;;6.03;;
32812;SDS011;19162;48.254;11.454;2023-06-22T16:58:24;14.35;;;6.65;;
32812;SDS011;19162;48.254;11.454;2023-06-22T17:01:24;15.98;;;6.28;;
32812;SDS011;19162;48.254;11.454;2023-06-22T17:04:25;11.45;;;5.88;;
32812;SDS011;19162;48.254;11.454;2023-06-22T17:07:26;12.98;;;5.53;;
32812;SDS011;19162;48.254;11.454;2023-06-22T17:10:28;13.50;;;6.53;;
32812;SDS011;19162;48.254;11.454;2023-06-22T17:13:28;12.52;;;6.65;;
32812;SDS011;19162;48.254;11.454;2023-06-22T17:16:30;8.53;;;6.00;;
32812;SDS011;19162;48.254;11.454;2023-06-22T17:22:31;24.08;;;10.70;;
32812;SDS011;19162;48.254;11.454;2023-06-22T17:25:35;34.20;;;11.45;;
32812;SDS011;19162;48.254;11.454;2023-06-22T17:28:49;24.33;;;10.53;;
32812;SDS011;19162;48.254;11.454;2023-06-22T17:31:50;19.08;;;10.75;;
32812;SDS011;19162;48.254;11.454;2023-06-22T17:34:55;19.20;;;7.88;;
32812;SDS011;19162;48.254;11.454;2023-06-22T17:37:56;15.37;;;7.67;;
32812;SDS011;19162;48.254;11.454;2023-06-22T17:41:00;9.35;;;4.10;;
32812;SDS011;19162;48.254;11.454;2023-06-22T17:44:03;12.50;;;5.65;;
32812;SDS011;19162;48.254;11.454;2023-06-22T17:47:04;9.70;;;4.50;;
32812;SDS011;19162;48.254;11.454;2023-06-22T17:50:04;9.57;;;4.40;;
32812;SDS011;19162;48.254;11.454;2023-06-22T17:53:08;8.48;;;3.85;;
32812;SDS011;19162;48.254;11.454;2023-06-22T17:56:09;7.07;;;3.88;;
32812;SDS011;19162;48.254;11.454;2023-06-22T17:59:12;14.10;;;4.60;;